sensor_id;sensor_type;location;lat;lon;timestamp;pressure;altitude;pressure_sealevel;temperature;humidity
6938;BME280;40040;42.706;23.372;2023-09-18T00:00:59;148503.16;;;17.57;100.00
6938;BME280;40040;42.706;23.372;2023-09-18T00:03:25;148506.88;;;17.58;100.00
6938;BME280;40040;42.706;23.372;2023-09-18T00:05:52;148489.50;;;17.51;100.00
6938;BME280;40040;42.706;23.372;2023-09-18T00:08:19;148519.28;;;17.63;100.00
6938;BME280;40040;42.706;23.372;2023-09-18T00:10:47;148536.66;;;17.70;100.00
6938;BME280;40040;42.706;23.372;2023-09-18T00:13:16;148545.31;;;17.74;100.00
6938;BME280;40040;42.706;23.372;2023-09-18T00:15:44;148554.00;;;17.77;100.00
6938;BME280;40040;42.706;23.372;2023-09-18T00:18:13;148570.13;;;17.84;100.00
6938;BME280;40040;42.706;23.372;2023-09-18T00:20:40;148554.00;;;17.77;100.00
6938;BME280;40040;42.706;23.372;2023-09-18T00:23:08;148578.81;;;17.87;100.00
6938;BME280;40040;42.706;23.372;2023-09-18T00:25:35;148602.41;;;17.97;100.00
6938;BME280;40040;42.706;23.372;2023-09-18T00:28:02;148611.09;;;18.01;100.00
6938;BME280;40040;42.706;23.372;2023-09-18T00:30:29;148616.06;;;18.03;100.00
6938;BME280;40040;42.706;23.372;2023-09-18T00:32:57;148598.69;;;17.95;100.00
6938;BME280;40040;42.706;23.372;2023-09-18T00:35:24;148622.22;;;18.05;100.00
6938;BME280;40040;42.706;23.372;2023-09-18T00:37:51;148629.66;;;18.08;100.00
6938;BME280;40040;42.706;23.372;2023-09-18T00:40:18;148598.69;;;17.95;100.00
6938;BME280;40040;42.706;23.372;2023-09-18T00:42:45;148635.88;;;18.11;100.00
6938;BME280;40040;42.706;23.372;2023-09-18T00:45:13;148633.44;;;18.10;100.00
6938;BME280;40040;42.706;23.372;2023-09-18T00:47:39;148616.06;;;18.03;100.00
6938;BME280;40040;42.706;23.372;2023-09-18T00:50:10;148630.91;;;18.09;100.00
6938;BME280;40040;42.706;23.372;2023-09-18T00:52:38;148650.75;;;18.17;100.00
6938;BME280;40040;42.706;23.372;2023-09-18T00:55:06;148650.75;;;18.17;100.00
6938;BME280;40040;42.706;23.372;2023-09-18T00:57:35;148645.84;;;18.15;100.00
6938;BME280;40040;42.706;23.372;2023-09-18T01:00:02;148638.34;;;18.12;100.00
6938;BME280;40040;42.706;23.372;2023-09-18T01:02:30;148591.22;;;17.92;100.00
6938;BME280;40040;42.706;23.372;2023-09-18T01:04:58;148640.84;;;18.13;100.00
6938;BME280;40040;42.706;23.372;2023-09-18T01:07:26;148638.34;;;18.12;100.00
6938;BME280;40040;42.706;23.372;2023-09-18T01:09:54;148625.94;;;18.07;100.00
6938;BME280;40040;42.706;23.372;2023-09-18T01:12:24;148637.16;;;18.11;100.00
6938;BME280;40040;42.706;23.372;2023-09-18T01:14:59;148630.91;;;18.09;100.00
6938;BME280;40040;42.706;23.372;2023-09-18T01:17:29;148635.88;;;18.11;100.00
6938;BME280;40040;42.706;23.372;2023-09-18T01:19:57;148575.09;;;17.86;100.00
6938;BME280;40040;42.706;23.372;2023-09-18T01:22:24;148607.38;;;17.99;100.00
6938;BME280;40040;42.706;23.372;2023-09-18T01:24:52;148611.09;;;18.01;100.00
6938;BME280;40040;42.706;23.372;2023-09-18T01:27:19;148624.75;;;18.06;100.00
6938;BME280;40040;42.706;23.372;2023-09-18T01:29:46;148616.06;;;18.03;100.00
6938;BME280;40040;42.706;23.372;2023-09-18T01:32:14;148608.59;;;17.99;100.00
6938;BME280;40040;42.706;23.372;2023-09-18T01:34:45;148598.69;;;17.95;100.00
6938;BME280;40040;42.706;23.372;2023-09-18T01:37:14;148588.75;;;17.91;100.00
6938;BME280;40040;42.706;23.372;2023-09-18T01:39:42;148581.31;;;17.88;100.00
6938;BME280;40040;42.706;23.372;2023-09-18T01:42:11;148563.94;;;17.81;100.00
6938;BME280;40040;42.706;23.372;2023-09-18T01:44:38;148556.47;;;17.78;100.00
6938;BME280;40040;42.706;23.372;2023-09-18T01:47:06;148546.59;;;17.74;100.00
6938;BME280;40040;42.706;23.372;2023-09-18T01:49:35;148556.47;;;17.78;100.00
6938;BME280;40040;42.706;23.372;2023-09-18T01:52:03;148561.44;;;17.80;100.00
6938;BME280;40040;42.706;23.372;2023-09-18T01:54:30;148556.47;;;17.78;100.00
6938;BME280;40040;42.706;23.372;2023-09-18T01:56:57;148535.38;;;17.70;100.00
6938;BME280;40040;42.706;23.372;2023-09-18T01:59:26;148554.00;;;17.77;100.00
6938;BME280;40040;42.706;23.372;2023-09-18T02:01:53;148573.84;;;17.85;100.00
6938;BME280;40040;42.706;23.372;2023-09-18T02:04:20;148572.63;;;17.85;100.00
6938;BME280;40040;42.706;23.372;2023-09-18T02:06:49;148591.22;;;17.92;100.00
6938;BME280;40040;42.706;23.372;2023-09-18T02:09:17;148591.22;;;17.92;100.00
6938;BME280;40040;42.706;23.372;2023-09-18T02:11:45;148576.34;;;17.86;100.00
6938;BME280;40040;42.706;23.372;2023-09-18T02:14:12;148602.41;;;17.97;100.00
6938;BME280;40040;42.706;23.372;2023-09-18T02:16:42;148608.59;;;17.99;100.00
6938;BME280;40040;42.706;23.372;2023-09-18T02:19:11;148609.84;;;18.00;100.00
6938;BME280;40040;42.706;23.372;2023-09-18T02:21:39;148604.88;;;17.98;100.00
6938;BME280;40040;42.706;23.372;2023-09-18T02:24:06;148602.41;;;17.97;100.00
6938;BME280;40040;42.706;23.372;2023-09-18T02:26:35;148590.00;;;17.92;100.00
6938;BME280;40040;42.706;23.372;2023-09-18T02:29:05;148554.00;;;17.77;100.00
6938;BME280;40040;42.706;23.372;2023-09-18T02:31:32;148554.00;;;17.77;100.00
6938;BME280;40040;42.706;23.372;2023-09-18T02:34:00;148541.63;;;17.72;100.00
6938;BME280;40040;42.706;23.372;2023-09-18T02:36:27;148532.94;;;17.69;100.00
6938;BME280;40040;42.706;23.372;2023-09-18T02:38:54;148501.91;;;17.56;100.00
6938;BME280;40040;42.706;23.372;2023-09-18T02:41:21;148556.47;;;17.78;100.00
6938;BME280;40040;42.706;23.372;2023-09-18T02:43:47;148511.84;;;17.60;100.00
6938;BME280;40040;42.706;23.372;2023-09-18T02:46:14;148515.56;;;17.62;100.00
6938;BME280;40040;42.706;23.372;2023-09-18T02:48:41;148473.38;;;17.45;100.00
6938;BME280;40040;42.706;23.372;2023-09-18T02:51:09;148509.34;;;17.59;100.00
6938;BME280;40040;42.706;23.372;2023-09-18T02:53:36;148501.91;;;17.56;100.00
6938;BME280;40040;42.706;23.372;2023-09-18T02:56:03;148504.38;;;17.57;100.00
6938;BME280;40040;42.706;23.372;2023-09-18T02:58:30;148509.34;;;17.59;100.00
6938;BME280;40040;42.706;23.372;2023-09-18T03:00:57;148503.16;;;17.57;100.00
6938;BME280;40040;42.706;23.372;2023-09-18T03:03:25;148506.88;;;17.58;100.00
6938;BME280;40040;42.706;23.372;2023-09-18T03:05:52;148484.53;;;17.49;100.00
6938;BME280;40040;42.706;23.372;2023-09-18T03:08:20;148469.66;;;17.43;100.00
6938;BME280;40040;42.706;23.372;2023-09-18T03:10:47;148456.00;;;17.38;100.00
6938;BME280;40040;42.706;23.372;2023-09-18T03:13:14;148407.63;;;17.18;100.00
6938;BME280;40040;42.706;23.372;2023-09-18T03:15:44;148387.81;;;17.10;100.00
6938;BME280;40040;42.706;23.372;2023-09-18T03:18:13;148416.31;;;17.22;100.00
6938;BME280;40040;42.706;23.372;2023-09-18T03:20:40;148432.41;;;17.28;100.00
6938;BME280;40040;42.706;23.372;2023-09-18T03:23:07;148381.59;;;17.08;100.00
6938;BME280;40040;42.706;23.372;2023-09-18T03:25:35;148429.94;;;17.27;100.00
6938;BME280;40040;42.706;23.372;2023-09-18T03:28:03;148429.94;;;17.27;100.00
6938;BME280;40040;42.706;23.372;2023-09-18T03:30:30;148424.97;;;17.25;100.00
6938;BME280;40040;42.706;23.372;2023-09-18T03:32:57;148416.31;;;17.22;100.00
6938;BME280;40040;42.706;23.372;2023-09-18T03:35:24;148420.03;;;17.23;100.00
6938;BME280;40040;42.706;23.372;2023-09-18T03:37:52;148384.03;;;17.09;100.00
6938;BME280;40040;42.706;23.372;2023-09-18T03:40:20;148410.09;;;17.19;100.00
6938;BME280;40040;42.706;23.372;2023-09-18T03:42:49;148402.66;;;17.16;100.00
6938;BME280;40040;42.706;23.372;2023-09-18T03:45:16;148415.06;;;17.21;100.00
6938;BME280;40040;42.706;23.372;2023-09-18T03:47:44;148395.22;;;17.13;100.00
6938;BME280;40040;42.706;23.372;2023-09-18T03:50:12;148412.59;;;17.20;100.00
6938;BME280;40040;42.706;23.372;2023-09-18T03:52:39;148408.88;;;17.19;100.00
6938;BME280;40040;42.706;23.372;2023-09-18T03:55:07;148415.06;;;17.21;100.00
6938;BME280;40040;42.706;23.372;2023-09-18T03:57:34;148355.56;;;16.97;100.00
6938;BME280;40040;42.706;23.372;2023-09-18T04:00:03;148380.34;;;17.07;100.00
6938;BME280;40040;42.706;23.372;2023-09-18T04:02:30;148375.38;;;17.05;100.00
6938;BME280;40040;42.706;23.372;2023-09-18T04:04:57;148377.88;;;17.06;100.00
6938;BME280;40040;42.706;23.372;2023-09-18T04:07:23;148375.38;;;17.05;100.00
6938;BME280;40040;42.706;23.372;2023-09-18T04:09:50;148375.38;;;17.05;100.00
6938;BME280;40040;42.706;23.372;2023-09-18T04:12:17;148358.00;;;16.98;100.00
6938;BME280;40040;42.706;23.372;2023-09-18T04:14:44;148359.25;;;16.99;100.00
6938;BME280;40040;42.706;23.372;2023-09-18T04:17:13;148315.88;;;16.81;100.00
6938;BME280;40040;42.706;23.372;2023-09-18T04:19:40;148358.00;;;16.98;100.00
6938;BME280;40040;42.706;23.372;2023-09-18T04:22:08;148343.16;;;16.92;100.00
6938;BME280;40040;42.706;23.372;2023-09-18T04:24:35;148346.88;;;16.94;100.00
6938;BME280;40040;42.706;23.372;2023-09-18T04:27:02;148353.09;;;16.96;100.00
6938;BME280;40040;42.706;23.372;2023-09-18T04:29:29;148353.09;;;16.96;100.00
6938;BME280;40040;42.706;23.372;2023-09-18T04:31:56;148353.09;;;16.96;100.00
6938;BME280;40040;42.706;23.372;2023-09-18T04:34:24;148353.09;;;16.96;100.00
6938;BME280;40040;42.706;23.372;2023-09-18T04:36:51;148356.81;;;16.98;100.00
6938;BME280;40040;42.706;23.372;2023-09-18T04:39:18;148346.88;;;16.94;100.00
6938;BME280;40040;42.706;23.372;2023-09-18T04:41:45;148338.19;;;16.90;100.00
6938;BME280;40040;42.706;23.372;2023-09-18T04:44:12;148328.25;;;16.86;100.00
6938;BME280;40040;42.706;23.372;2023-09-18T04:46:39;148328.25;;;16.86;100.00
6938;BME280;40040;42.706;23.372;2023-09-18T04:49:08;148348.13;;;16.94;100.00
6938;BME280;40040;42.706;23.372;2023-09-18T04:51:37;148360.53;;;16.99;100.00
6938;BME280;40040;42.706;23.372;2023-09-18T04:54:05;148374.16;;;17.05;100.00
6938;BME280;40040;42.706;23.372;2023-09-18T04:56:32;148387.81;;;17.10;100.00
6938;BME280;40040;42.706;23.372;2023-09-18T04:58:58;148397.69;;;17.14;100.00
6938;BME280;40040;42.706;23.372;2023-09-18T05:01:25;148407.63;;;17.18;100.00
6938;BME280;40040;42.706;23.372;2023-09-18T05:03:53;148410.09;;;17.19;100.00
6938;BME280;40040;42.706;23.372;2023-09-18T05:06:19;148410.09;;;17.19;100.00
6938;BME280;40040;42.706;23.372;2023-09-18T05:08:47;148416.31;;;17.22;100.00
6938;BME280;40040;42.706;23.372;2023-09-18T05:11:14;148412.59;;;17.20;100.00
6938;BME280;40040;42.706;23.372;2023-09-18T05:13:42;148429.94;;;17.27;100.00
6938;BME280;40040;42.706;23.372;2023-09-18T05:16:08;148432.41;;;17.28;100.00
6938;BME280;40040;42.706;23.372;2023-09-18T05:18:36;148457.19;;;17.38;100.00
6938;BME280;40040;42.706;23.372;2023-09-18T05:21:03;148482.09;;;17.48;100.00
6938;BME280;40040;42.706;23.372;2023-09-18T05:23:30;148473.38;;;17.45;100.00
6938;BME280;40040;42.706;23.372;2023-09-18T05:25:59;148520.53;;;17.64;100.00
6938;BME280;40040;42.706;23.372;2023-09-18T05:28:26;148547.78;;;17.75;100.00
6938;BME280;40040;42.706;23.372;2023-09-18T05:30:53;148577.56;;;17.87;100.00
6938;BME280;40040;42.706;23.372;2023-09-18T05:33:20;148541.63;;;17.72;100.00
6938;BME280;40040;42.706;23.372;2023-09-18T05:35:47;148630.91;;;18.09;100.00
6938;BME280;40040;42.706;23.372;2023-09-18T05:38:14;148665.66;;;18.23;100.00
6938;BME280;40040;42.706;23.372;2023-09-18T05:40:43;148678.06;;;18.28;100.00
6938;BME280;40040;42.706;23.372;2023-09-18T05:43:11;148692.97;;;18.34;100.00
6938;BME280;40040;42.706;23.372;2023-09-18T05:45:38;148717.84;;;18.44;100.00
6938;BME280;40040;42.706;23.372;2023-09-18T05:48:05;148709.16;;;18.40;100.00
6938;BME280;40040;42.706;23.372;2023-09-18T05:50:34;148784.84;;;18.71;100.00
6938;BME280;40040;42.706;23.372;2023-09-18T05:53:01;148801.00;;;18.77;100.00
6938;BME280;40040;42.706;23.372;2023-09-18T05:55:29;148776.16;;;18.67;100.00
6938;BME280;40040;42.706;23.372;2023-09-18T05:57:56;148834.50;;;18.91;100.00
6938;BME280;40040;42.706;23.372;2023-09-18T06:00:24;148763.75;;;18.62;100.00
6938;BME280;40040;42.706;23.372;2023-09-18T06:02:51;148864.31;;;19.03;100.00
6938;BME280;40040;42.706;23.372;2023-09-18T06:05:18;148876.72;;;19.08;100.00
6938;BME280;40040;42.706;23.372;2023-09-18T06:07:47;148894.09;;;19.15;100.00
6938;BME280;40040;42.706;23.372;2023-09-18T06:10:14;148904.06;;;19.19;100.00
6938;BME280;40040;42.706;23.372;2023-09-18T06:12:42;148901.53;;;19.18;100.00
6938;BME280;40040;42.706;23.372;2023-09-18T06:15:09;148923.91;;;19.27;100.00
6938;BME280;40040;42.706;23.372;2023-09-18T06:17:39;148941.31;;;19.34;100.00
6938;BME280;40040;42.706;23.372;2023-09-18T06:20:07;148927.63;;;19.29;100.00
6938;BME280;40040;42.706;23.372;2023-09-18T06:22:36;148961.19;;;19.42;100.00
6938;BME280;40040;42.706;23.372;2023-09-18T06:25:04;148959.97;;;19.42;100.00
6938;BME280;40040;42.706;23.372;2023-09-18T06:27:34;148983.53;;;19.51;100.00
6938;BME280;40040;42.706;23.372;2023-09-18T06:30:02;149013.34;;;19.63;100.00
6938;BME280;40040;42.706;23.372;2023-09-18T06:32:29;149055.63;;;19.80;100.00
6938;BME280;40040;42.706;23.372;2023-09-18T06:34:57;149092.88;;;19.95;100.00
6938;BME280;40040;42.706;23.372;2023-09-18T06:37:24;149105.28;;;20.00;100.00
6938;BME280;40040;42.706;23.372;2023-09-18T06:39:52;149136.34;;;20.13;100.00
6938;BME280;40040;42.706;23.372;2023-09-18T06:42:18;149163.75;;;20.24;100.00
6938;BME280;40040;42.706;23.372;2023-09-18T06:44:46;149162.50;;;20.24;100.00
6938;BME280;40040;42.706;23.372;2023-09-18T06:47:12;149202.28;;;20.40;100.00
6938;BME280;40040;42.706;23.372;2023-09-18T06:49:40;149198.50;;;20.38;100.00
6938;BME280;40040;42.706;23.372;2023-09-18T06:52:08;149177.38;;;20.30;100.00
6938;BME280;40040;42.706;23.372;2023-09-18T06:54:35;149199.75;;;20.39;100.00
6938;BME280;40040;42.706;23.372;2023-09-18T06:57:03;149227.13;;;20.50;100.00
6938;BME280;40040;42.706;23.372;2023-09-18T06:59:30;149266.91;;;20.66;100.00
6938;BME280;40040;42.706;23.372;2023-09-18T07:01:59;149300.44;;;20.79;100.00
6938;BME280;40040;42.706;23.372;2023-09-18T07:04:26;149294.22;;;20.77;100.00
6938;BME280;40040;42.706;23.372;2023-09-18T07:06:53;149295.47;;;20.77;100.00
6938;BME280;40040;42.706;23.372;2023-09-18T07:09:23;149296.72;;;20.78;100.00
6938;BME280;40040;42.706;23.372;2023-09-18T07:11:51;149305.44;;;20.81;100.00
6938;BME280;40040;42.706;23.372;2023-09-18T07:14:18;149329.03;;;20.91;100.00
6938;BME280;40040;42.706;23.372;2023-09-18T07:16:45;149371.34;;;21.08;100.00
6938;BME280;40040;42.706;23.372;2023-09-18T07:19:12;149408.66;;;21.23;100.00
6938;BME280;40040;42.706;23.372;2023-09-18T07:21:43;149377.56;;;21.10;100.00
6938;BME280;40040;42.706;23.372;2023-09-18T07:24:10;149459.63;;;21.44;100.00
6938;BME280;40040;42.706;23.372;2023-09-18T07:26:45;149418.56;;;21.27;100.00
6938;BME280;40040;42.706;23.372;2023-09-18T07:29:12;149421.09;;;21.28;100.00
6938;BME280;40040;42.706;23.372;2023-09-18T07:31:41;149399.97;;;21.19;100.00
6938;BME280;40040;42.706;23.372;2023-09-18T07:34:08;149437.25;;;21.35;100.00
6938;BME280;40040;42.706;23.372;2023-09-18T07:36:35;149467.09;;;21.47;100.00
6938;BME280;40040;42.706;23.372;2023-09-18T07:39:02;149498.19;;;21.59;100.00
6938;BME280;40040;42.706;23.372;2023-09-18T07:41:29;149503.16;;;21.61;100.00
6938;BME280;40040;42.706;23.372;2023-09-18T07:43:58;149515.59;;;21.66;100.00
6938;BME280;40040;42.706;23.372;2023-09-18T07:46:25;149520.59;;;21.68;100.00
6938;BME280;40040;42.706;23.372;2023-09-18T07:48:52;149580.31;;;21.92;100.00
6938;BME280;40040;42.706;23.372;2023-09-18T07:51:19;149589.03;;;21.96;100.00
6938;BME280;40040;42.706;23.372;2023-09-18T07:53:46;149605.19;;;22.02;100.00
6938;BME280;40040;42.706;23.372;2023-09-18T07:56:13;149635.06;;;22.14;100.00
6938;BME280;40040;42.706;23.372;2023-09-18T07:58:40;149672.41;;;22.29;100.00
6938;BME280;40040;42.706;23.372;2023-09-18T08:01:08;149671.16;;;22.29;100.00
6938;BME280;40040;42.706;23.372;2023-09-18T08:03:35;149674.88;;;22.30;100.00
6938;BME280;40040;42.706;23.372;2023-09-18T08:06:02;149676.13;;;22.31;100.00
6938;BME280;40040;42.706;23.372;2023-09-18T08:08:31;149709.72;;;22.45;100.00
6938;BME280;40040;42.706;23.372;2023-09-18T08:11:04;149744.63;;;22.59;100.00
6938;BME280;40040;42.706;23.372;2023-09-18T08:13:33;149823.03;;;22.90;100.00
6938;BME280;40040;42.706;23.372;2023-09-18T08:16:00;149818.06;;;22.88;100.00
6938;BME280;40040;42.706;23.372;2023-09-18T08:18:29;149839.22;;;22.97;100.00
6938;BME280;40040;42.706;23.372;2023-09-18T08:20:56;149871.59;;;23.10;100.00
6938;BME280;40040;42.706;23.372;2023-09-18T08:23:23;149857.91;;;23.04;100.00
6938;BME280;40040;42.706;23.372;2023-09-18T08:25:50;149896.50;;;23.20;100.00
6938;BME280;40040;42.706;23.372;2023-09-18T08:28:20;149886.50;;;23.16;100.00
6938;BME280;40040;42.706;23.372;2023-09-18T08:30:47;149993.63;;;23.59;100.00
6938;BME280;40040;42.706;23.372;2023-09-18T08:33:14;150048.47;;;23.81;100.00
6938;BME280;40040;42.706;23.372;2023-09-18T08:35:43;150063.41;;;23.87;97.01
6938;BME280;40040;42.706;23.372;2023-09-18T08:38:12;150038.50;;;23.77;97.27
6938;BME280;40040;42.706;23.372;2023-09-18T08:40:41;150038.50;;;23.77;96.10
6938;BME280;40040;42.706;23.372;2023-09-18T08:43:10;150088.28;;;23.97;95.94
6938;BME280;40040;42.706;23.372;2023-09-18T08:45:44;150150.66;;;24.22;94.86
6938;BME280;40040;42.706;23.372;2023-09-18T08:48:12;150222.91;;;24.51;92.44
6938;BME280;40040;42.706;23.372;2023-09-18T08:50:39;150280.28;;;24.75;88.79
6938;BME280;40040;42.706;23.372;2023-09-18T08:53:08;150317.66;;;24.90;89.13
6938;BME280;40040;42.706;23.372;2023-09-18T08:55:35;150434.91;;;25.37;87.33
6938;BME280;40040;42.706;23.372;2023-09-18T08:58:02;150487.28;;;25.58;85.03
6938;BME280;40040;42.706;23.372;2023-09-18T09:00:29;150544.66;;;25.81;83.86
6938;BME280;40040;42.706;23.372;2023-09-18T09:02:56;150527.19;;;25.74;82.27
6938;BME280;40040;42.706;23.372;2023-09-18T09:05:23;150585.84;;;25.98;83.81
6938;BME280;40040;42.706;23.372;2023-09-18T09:07:50;150646.97;;;26.22;82.11
6938;BME280;40040;42.706;23.372;2023-09-18T09:10:18;150674.41;;;26.33;81.12
6938;BME280;40040;42.706;23.372;2023-09-18T09:12:51;150676.88;;;26.34;79.60
6938;BME280;40040;42.706;23.372;2023-09-18T09:15:19;150686.88;;;26.38;78.49
6938;BME280;40040;42.706;23.372;2023-09-18T09:17:46;150720.56;;;26.52;79.22
6938;BME280;40040;42.706;23.372;2023-09-18T09:20:14;150779.28;;;26.76;77.99
6938;BME280;40040;42.706;23.372;2023-09-18T09:22:44;150827.97;;;26.95;77.76
6938;BME280;40040;42.706;23.372;2023-09-18T09:25:26;150802.97;;;26.85;76.32
6938;BME280;40040;42.706;23.372;2023-09-18T09:27:54;150766.81;;;26.71;75.43
6938;BME280;40040;42.706;23.372;2023-09-18T09:30:22;150694.34;;;26.41;75.70
6938;BME280;40040;42.706;23.372;2023-09-18T09:32:50;150801.75;;;26.85;75.07
6938;BME280;40040;42.706;23.372;2023-09-18T09:35:22;150904.06;;;27.26;75.54
6938;BME280;40040;42.706;23.372;2023-09-18T09:37:49;150896.59;;;27.23;72.58
6938;BME280;40040;42.706;23.372;2023-09-18T09:40:20;150929.09;;;27.36;72.78
6938;BME280;40040;42.706;23.372;2023-09-18T09:42:51;150897.81;;;27.23;71.48
6938;BME280;40040;42.706;23.372;2023-09-18T09:45:19;150904.06;;;27.26;71.66
6938;BME280;40040;42.706;23.372;2023-09-18T09:47:46;150950.28;;;27.44;70.31
6938;BME280;40040;42.706;23.372;2023-09-18T09:50:15;150976.50;;;27.55;69.12
6938;BME280;40040;42.706;23.372;2023-09-18T09:52:46;151007.75;;;27.67;67.94
6938;BME280;40040;42.706;23.372;2023-09-18T09:55:25;151032.69;;;27.77;67.51
6938;BME280;40040;42.706;23.372;2023-09-18T09:57:56;151056.44;;;27.87;67.91
6938;BME280;40040;42.706;23.372;2023-09-18T10:00:30;151091.47;;;28.01;67.71
6938;BME280;40040;42.706;23.372;2023-09-18T10:03:03;151127.66;;;28.16;67.37
6938;BME280;40040;42.706;23.372;2023-09-18T10:05:32;151230.16;;;28.57;65.34
6938;BME280;40040;42.706;23.372;2023-09-18T10:08:03;151338.84;;;29.01;64.12
6938;BME280;40040;42.706;23.372;2023-09-18T10:10:36;151378.91;;;29.17;63.71
6938;BME280;40040;42.706;23.372;2023-09-18T10:13:09;151281.38;;;28.77;62.12
6938;BME280;40040;42.706;23.372;2023-09-18T10:15:37;151338.84;;;29.01;62.85
6938;BME280;40040;42.706;23.372;2023-09-18T10:18:17;151226.41;;;28.55;63.42
6938;BME280;40040;42.706;23.372;2023-09-18T10:20:51;151331.38;;;28.98;62.33
6938;BME280;40040;42.706;23.372;2023-09-18T10:23:35;151343.88;;;29.03;61.48
6938;BME280;40040;42.706;23.372;2023-09-18T10:26:07;151472.63;;;29.54;61.53
6938;BME280;40040;42.706;23.372;2023-09-18T10:28:35;151428.88;;;29.37;60.77
6938;BME280;40040;42.706;23.372;2023-09-18T10:31:03;151355.09;;;29.07;59.93
6938;BME280;40040;42.706;23.372;2023-09-18T10:33:32;151311.34;;;28.90;60.75
6938;BME280;40040;42.706;23.372;2023-09-18T10:36:00;151246.38;;;28.63;62.67
6938;BME280;40040;42.706;23.372;2023-09-18T10:38:29;151243.91;;;28.62;62.20
6938;BME280;40040;42.706;23.372;2023-09-18T10:40:57;151126.44;;;28.15;63.01
6938;BME280;40040;42.706;23.372;2023-09-18T10:43:25;151241.38;;;28.61;62.75
6938;BME280;40040;42.706;23.372;2023-09-18T10:45:53;151243.91;;;28.62;62.09
6938;BME280;40040;42.706;23.372;2023-09-18T10:48:21;151258.88;;;28.68;63.21
6938;BME280;40040;42.706;23.372;2023-09-18T10:50:50;151208.88;;;28.48;62.67
6938;BME280;40040;42.706;23.372;2023-09-18T10:53:18;151211.34;;;28.49;63.09
6938;BME280;40040;42.706;23.372;2023-09-18T10:55:45;151221.41;;;28.53;63.83
6938;BME280;40040;42.706;23.372;2023-09-18T10:58:23;151216.41;;;28.51;61.22
6938;BME280;40040;42.706;23.372;2023-09-18T11:00:50;151282.63;;;28.78;61.81
6938;BME280;40040;42.706;23.372;2023-09-18T11:03:18;151232.63;;;28.58;62.04
6938;BME280;40040;42.706;23.372;2023-09-18T11:05:48;151348.81;;;29.05;61.32
6938;BME280;40040;42.706;23.372;2023-09-18T11:08:28;151487.63;;;29.60;59.98
6938;BME280;40040;42.706;23.372;2023-09-18T11:10:57;151593.94;;;30.03;58.29
6938;BME280;40040;42.706;23.372;2023-09-18T11:13:30;151556.44;;;29.88;58.58
6938;BME280;40040;42.706;23.372;2023-09-18T11:16:01;151630.22;;;30.18;57.58
6938;BME280;40040;42.706;23.372;2023-09-18T11:18:33;151694.03;;;30.43;56.79
6938;BME280;40040;42.706;23.372;2023-09-18T11:21:07;151630.22;;;30.18;56.28
6938;BME280;40040;42.706;23.372;2023-09-18T11:23:36;151441.38;;;29.42;59.76
6938;BME280;40040;42.706;23.372;2023-09-18T11:26:04;151406.38;;;29.28;58.91
6938;BME280;40040;42.706;23.372;2023-09-18T11:28:31;151410.09;;;29.29;57.99
6938;BME280;40040;42.706;23.372;2023-09-18T11:30:58;151451.38;;;29.46;58.84
6938;BME280;40040;42.706;23.372;2023-09-18T11:33:34;151556.44;;;29.88;57.38
6938;BME280;40040;42.706;23.372;2023-09-18T11:36:04;151553.91;;;29.87;56.91
6938;BME280;40040;42.706;23.372;2023-09-18T11:38:33;151482.63;;;29.58;58.22
6938;BME280;40040;42.706;23.372;2023-09-18T11:41:19;151421.38;;;29.34;58.46
6938;BME280;40040;42.706;23.372;2023-09-18T11:43:46;151426.38;;;29.36;58.72
6938;BME280;40040;42.706;23.372;2023-09-18T11:46:18;151271.34;;;28.73;60.21
6938;BME280;40040;42.706;23.372;2023-09-18T11:48:48;151195.13;;;28.43;60.51
6938;BME280;40040;42.706;23.372;2023-09-18T11:51:22;151138.91;;;28.20;59.51
6938;BME280;40040;42.706;23.372;2023-09-18T11:53:53;151208.88;;;28.48;60.04
6938;BME280;40040;42.706;23.372;2023-09-18T11:56:21;151251.38;;;28.65;61.63
6938;BME280;40040;42.706;23.372;2023-09-18T11:58:50;151358.84;;;29.09;61.02
6938;BME280;40040;42.706;23.372;2023-09-18T12:01:18;151396.41;;;29.24;60.38
6938;BME280;40040;42.706;23.372;2023-09-18T12:03:45;151357.56;;;29.08;59.55
6938;BME280;40040;42.706;23.372;2023-09-18T12:06:16;151266.41;;;28.71;59.91
6938;BME280;40040;42.706;23.372;2023-09-18T12:08:43;151128.91;;;28.16;61.35
6938;BME280;40040;42.706;23.372;2023-09-18T12:11:12;151122.69;;;28.14;61.53
6938;BME280;40040;42.706;23.372;2023-09-18T12:13:42;151093.94;;;28.02;61.40
6938;BME280;40040;42.706;23.372;2023-09-18T12:16:09;151118.94;;;28.12;61.58
6938;BME280;40040;42.706;23.372;2023-09-18T12:18:36;151073.97;;;27.94;62.24
6938;BME280;40040;42.706;23.372;2023-09-18T12:21:07;151068.97;;;27.92;62.67
6938;BME280;40040;42.706;23.372;2023-09-18T12:23:39;151028.97;;;27.76;62.67
6938;BME280;40040;42.706;23.372;2023-09-18T12:26:09;151048.97;;;27.84;62.53
6938;BME280;40040;42.706;23.372;2023-09-18T12:28:38;150974.03;;;27.54;62.80
6938;BME280;40040;42.706;23.372;2023-09-18T12:31:06;150942.81;;;27.41;63.36
6938;BME280;40040;42.706;23.372;2023-09-18T12:33:34;150941.56;;;27.41;62.93
6938;BME280;40040;42.706;23.372;2023-09-18T12:36:02;150970.31;;;27.52;62.09
6938;BME280;40040;42.706;23.372;2023-09-18T12:38:30;151038.97;;;27.80;62.02
6938;BME280;40040;42.706;23.372;2023-09-18T12:40:59;151028.97;;;27.76;61.87
6938;BME280;40040;42.706;23.372;2023-09-18T12:43:35;151009.00;;;27.68;60.46
6938;BME280;40040;42.706;23.372;2023-09-18T12:46:04;151036.50;;;27.79;62.08
6938;BME280;40040;42.706;23.372;2023-09-18T12:48:31;151053.91;;;27.86;62.22